createdAt,value
2023-05-19T00:01:57.416Z,58.79
2023-05-19T00:04:25.112Z,59.60
2023-05-19T00:06:54.446Z,59.88
2023-05-19T00:09:22.912Z,61.09
2023-05-19T00:11:50.841Z,61.25
2023-05-19T00:14:18.744Z,60.81
2023-05-19T00:16:46.496Z,60.79
2023-05-19T00:19:14.830Z,61.31
2023-05-19T00:21:41.990Z,61.09
2023-05-19T00:24:10.043Z,61.53
2023-05-19T00:26:37.046Z,61.23
2023-05-19T00:29:22.848Z,62.31
2023-05-19T00:31:50.470Z,62.07
2023-05-19T00:34:19.664Z,61.80
2023-05-19T00:36:46.782Z,61.84
2023-05-19T00:39:14.484Z,61.69
2023-05-19T00:41:42.007Z,61.72
2023-05-19T00:44:09.019Z,62.64
2023-05-19T00:46:36.144Z,62.11
2023-05-19T00:49:03.022Z,62.27
2023-05-19T00:51:44.227Z,62.55
2023-05-19T00:54:11.900Z,62.09
2023-05-19T00:56:39.572Z,61.64
2023-05-19T00:59:07.310Z,61.19
2023-05-19T01:01:34.358Z,61.10
2023-05-19T01:04:01.686Z,61.63
2023-05-19T01:06:29.371Z,62.23
2023-05-19T01:08:57.589Z,61.85
2023-05-19T01:11:24.472Z,61.43
2023-05-19T01:13:51.697Z,62.54
2023-05-19T01:16:29.532Z,60.78
2023-05-19T01:19:10.568Z,61.04
2023-05-19T01:22:09.095Z,60.82
2023-05-19T01:25:07.861Z,60.73
2023-05-19T01:28:15.963Z,60.55
2023-05-19T01:30:52.485Z,60.66
2023-05-19T01:33:23.405Z,61.18
2023-05-19T01:35:53.712Z,61.46
2023-05-19T01:38:22.389Z,61.28
2023-05-19T01:40:51.403Z,61.64
2023-05-19T01:43:23.950Z,62.21
2023-05-19T01:45:53.325Z,62.23
2023-05-19T01:48:23.129Z,61.70
2023-05-19T01:50:50.455Z,61.53
2023-05-19T01:53:17.440Z,62.12
2023-05-19T01:55:52.197Z,62.43
2023-05-19T01:58:33.197Z,62.34
2023-05-19T02:01:16.478Z,62.08
2023-05-19T02:04:06.886Z,62.33
2023-05-19T02:06:45.975Z,61.97
2023-05-19T02:09:20.749Z,62.46
2023-05-19T02:11:55.884Z,62.34
2023-05-19T02:14:33.606Z,61.98
2023-05-19T02:17:05.171Z,62.99
2023-05-19T02:19:34.268Z,62.92
2023-05-19T02:22:01.251Z,62.39
2023-05-19T02:24:28.150Z,63.42
2023-05-19T02:29:50.829Z,63.01
2023-05-19T02:32:20.393Z,62.65
2023-05-19T02:34:47.974Z,62.75
2023-05-19T02:37:16.588Z,63.22
2023-05-19T02:39:44.580Z,63.34
2023-05-19T02:42:12.526Z,62.61
2023-05-19T02:44:39.670Z,62.93
2023-05-19T02:47:06.690Z,62.28
2023-05-19T02:49:35.058Z,62.06
2023-05-19T02:52:02.265Z,62.31
2023-05-19T02:54:29.346Z,61.68
2023-05-19T02:56:56.463Z,62.87
2023-05-19T02:59:25.472Z,62.39
2023-05-19T03:01:56.445Z,62.49
2023-05-19T03:04:23.764Z,62.82
2023-05-19T03:06:52.657Z,62.93
2023-05-19T03:13:02.904Z,63.31
2023-05-19T03:15:57.793Z,62.72
2023-05-19T03:18:26.386Z,63.81
2023-05-19T03:20:54.539Z,63.91
2023-05-19T03:23:22.882Z,63.20
2023-05-19T03:25:49.907Z,63.05
2023-05-19T03:28:16.820Z,63.45
2023-05-19T03:30:43.821Z,63.81
2023-05-19T03:33:18.704Z,63.93
2023-05-19T03:35:45.979Z,63.53
2023-05-19T03:38:13.615Z,63.54
2023-05-19T03:40:48.606Z,64.36
2023-05-19T03:43:15.573Z,64.58
2023-05-19T03:45:48.061Z,64.21
2023-05-19T03:48:33.428Z,64.78
2023-05-19T03:51:20.806Z,64.95
2023-05-19T03:53:50.617Z,64.34
2023-05-19T03:56:20.487Z,65.23
2023-05-19T03:58:47.633Z,65.00
2023-05-19T04:01:16.067Z,64.98
2023-05-19T04:03:43.029Z,64.48
2023-05-19T04:06:10.095Z,65.31
2023-05-19T04:08:37.002Z,65.06
2023-05-19T04:11:04.262Z,64.95
2023-05-19T04:13:33.712Z,65.55
2023-05-19T04:16:00.889Z,65.16
2023-05-19T04:18:29.242Z,64.71
2023-05-19T04:20:56.452Z,64.58
2023-05-19T04:23:23.460Z,64.61
2023-05-19T04:25:51.308Z,64.77
2023-05-19T04:28:18.295Z,64.28
2023-05-19T04:30:46.850Z,64.91
2023-05-19T04:33:14.731Z,64.35
2023-05-19T04:35:42.979Z,63.42
2023-05-19T04:38:11.677Z,63.85
2023-05-19T04:40:39.014Z,63.89
2023-05-19T04:43:06.629Z,63.79
2023-05-19T04:45:33.779Z,64.24
2023-05-19T04:48:04.514Z,63.86
2023-05-19T04:50:31.701Z,63.42
2023-05-19T04:52:59.431Z,62.42
2023-05-19T04:55:28.723Z,61.57
2023-05-19T04:57:57.481Z,60.04
2023-05-19T05:00:24.885Z,58.60
2023-05-19T05:03:05.942Z,57.42
2023-05-19T05:05:35.369Z,56.60
2023-05-19T05:08:02.703Z,55.17
2023-05-19T05:10:34.429Z,53.89
2023-05-19T05:13:02.674Z,54.44
2023-05-19T05:15:31.065Z,52.71
2023-05-19T05:18:02.100Z,52.48
2023-05-19T05:20:34.179Z,51.53
2023-05-19T05:23:02.450Z,52.37
2023-05-19T05:25:32.398Z,52.09
2023-05-19T05:27:59.587Z,50.29
2023-05-19T05:30:26.623Z,49.35
2023-05-19T05:32:54.149Z,49.60
2023-05-19T05:35:33.984Z,49.90
2023-05-19T05:38:01.257Z,50.96
2023-05-19T05:40:29.838Z,51.69
2023-05-19T05:42:57.158Z,52.11
2023-05-19T05:45:26.045Z,52.80
2023-05-19T05:47:54.940Z,52.74
2023-05-19T05:50:23.915Z,52.83
2023-05-19T05:52:56.912Z,52.36
2023-05-19T05:55:25.943Z,49.59
2023-05-19T05:57:52.902Z,48.01
2023-05-19T06:00:21.499Z,46.83
2023-05-19T06:02:52.573Z,44.46
2023-05-19T06:05:20.561Z,42.80
2023-05-19T06:07:48.740Z,41.01
2023-05-19T06:10:23.746Z,40.22
2023-05-19T06:12:52.984Z,39.99
2023-05-19T06:15:23.441Z,38.72
2023-05-19T06:18:07.567Z,38.23
2023-05-19T06:20:34.681Z,38.48
2023-05-19T06:23:03.300Z,37.63
2023-05-19T06:25:31.786Z,38.41
2023-05-19T06:27:58.887Z,37.57
2023-05-19T06:30:25.936Z,37.42
2023-05-19T06:33:12.046Z,37.06
2023-05-19T06:35:39.030Z,36.95
2023-05-19T06:38:06.456Z,35.93
2023-05-19T06:40:35.995Z,40.75
2023-05-19T06:43:03.687Z,41.64
2023-05-19T06:45:53.493Z,40.95
2023-05-19T06:48:22.501Z,39.60
2023-05-19T06:50:49.882Z,37.72
2023-05-19T06:53:19.944Z,36.40
2023-05-19T06:55:58.139Z,35.64
2023-05-19T06:58:27.830Z,35.00
2023-05-19T07:00:55.434Z,36.89
2023-05-19T07:03:24.762Z,38.25
2023-05-19T07:05:55.512Z,39.94
2023-05-19T07:08:22.725Z,41.06
2023-05-19T07:10:51.108Z,41.89
2023-05-19T07:13:17.970Z,41.72
2023-05-19T07:15:45.966Z,43.34
2023-05-19T07:18:13.791Z,44.10
2023-05-19T07:20:41.686Z,44.05
2023-05-19T07:23:09.451Z,43.84
2023-05-19T07:25:36.937Z,44.67
2023-05-19T07:28:06.263Z,45.40
2023-05-19T07:30:33.953Z,46.11
2023-05-19T07:33:00.995Z,46.31
2023-05-19T07:35:28.939Z,47.95
2023-05-19T07:37:55.948Z,48.04
2023-05-19T07:40:22.942Z,46.39
2023-05-19T07:42:50.208Z,45.91
2023-05-19T07:45:18.845Z,44.54
2023-05-19T07:47:45.897Z,45.66
2023-05-19T07:50:12.839Z,44.85
2023-05-19T07:52:40.083Z,45.37
2023-05-19T07:55:07.226Z,45.51
2023-05-19T07:57:34.169Z,45.33
2023-05-19T08:00:01.083Z,44.12
2023-05-19T08:02:29.470Z,44.43
2023-05-19T08:04:56.537Z,46.03
2023-05-19T08:07:23.630Z,45.66
2023-05-19T08:09:50.549Z,45.90
2023-05-19T08:12:17.409Z,46.26
2023-05-19T08:14:44.763Z,46.57
2023-05-19T08:17:11.721Z,46.58
2023-05-19T08:19:40.004Z,47.04
2023-05-19T08:22:08.076Z,47.48
2023-05-19T08:24:36.877Z,47.65
2023-05-19T08:27:04.639Z,47.20
2023-05-19T08:29:32.138Z,48.17
2023-05-19T08:31:59.044Z,47.37
2023-05-19T08:34:27.219Z,49.37
2023-05-19T08:36:56.217Z,47.26
2023-05-19T08:39:23.113Z,48.12
2023-05-19T08:41:52.600Z,47.29
2023-05-19T08:44:20.068Z,49.04
2023-05-19T08:46:48.136Z,48.38
2023-05-19T08:49:25.488Z,47.44
2023-05-19T08:52:06.247Z,48.26
2023-05-19T08:54:43.269Z,48.68
2023-05-19T08:57:10.935Z,47.94
2023-05-19T08:59:40.850Z,48.85
2023-05-19T09:02:13.191Z,49.57
2023-05-19T09:04:41.212Z,50.70
2023-05-19T09:07:09.668Z,51.38
2023-05-19T09:09:36.715Z,50.58
2023-05-19T09:12:04.564Z,50.95
2023-05-19T09:14:32.994Z,51.03
2023-05-19T09:17:02.060Z,49.90
2023-05-19T09:19:29.518Z,50.24
2023-05-19T09:22:00.288Z,49.01
2023-05-19T09:24:29.036Z,49.47
2023-05-19T09:26:57.732Z,50.86
2023-05-19T09:29:26.173Z,50.99
2023-05-19T09:31:55.434Z,50.88
2023-05-19T09:34:22.567Z,50.60
2023-05-19T09:36:49.748Z,50.54
2023-05-19T09:39:17.745Z,50.63
2023-05-19T09:41:46.591Z,51.42
2023-05-19T09:44:21.182Z,52.29
2023-05-19T09:46:49.748Z,51.94
2023-05-19T09:49:21.412Z,51.81
2023-05-19T09:51:53.970Z,50.52
2023-05-19T09:54:22.569Z,49.86
2023-05-19T09:56:57.706Z,51.06
2023-05-19T09:59:25.794Z,49.59
2023-05-19T10:01:55.220Z,50.50
2023-05-19T10:04:23.638Z,50.20
2023-05-19T10:06:51.110Z,50.95
2023-05-19T10:09:18.560Z,50.89
2023-05-19T10:11:46.154Z,51.32
2023-05-19T10:14:15.872Z,50.88
2023-05-19T10:16:44.381Z,50.34
2023-05-19T10:19:13.972Z,50.73
2023-05-19T10:22:19.070Z,50.77
2023-05-19T10:24:46.319Z,51.15
2023-05-19T10:27:19.948Z,51.00
2023-05-19T10:29:52.253Z,50.72
2023-05-19T10:32:26.697Z,50.80
2023-05-19T10:35:28.288Z,49.73
2023-05-19T10:38:09.536Z,51.31
2023-05-19T10:40:53.343Z,51.02
2023-05-19T10:43:37.142Z,51.59
2023-05-19T10:46:06.309Z,52.43
2023-05-19T10:48:35.227Z,51.52
2023-05-19T10:51:03.100Z,51.02
2023-05-19T10:53:32.070Z,49.82
2023-05-19T10:56:02.324Z,50.50
2023-05-19T10:58:38.683Z,51.24
2023-05-19T11:01:14.214Z,51.36
2023-05-19T11:03:49.973Z,51.09
2023-05-19T11:06:35.081Z,51.68
2023-05-19T11:09:13.449Z,52.58
2023-05-19T11:11:48.136Z,51.96
2023-05-19T11:14:18.311Z,51.57
2023-05-19T11:16:50.203Z,51.91
2023-05-19T11:19:27.479Z,52.00
2023-05-19T11:21:55.594Z,51.55
2023-05-19T11:24:40.333Z,51.19
2023-05-19T11:27:24.543Z,51.45
2023-05-19T11:29:52.370Z,52.01
2023-05-19T11:32:22.976Z,51.50
2023-05-19T11:34:50.284Z,50.63
2023-05-19T11:37:17.535Z,50.36
2023-05-19T11:39:46.891Z,50.61
2023-05-19T11:42:16.524Z,52.03
2023-05-19T11:44:44.391Z,52.33
2023-05-19T11:47:24.974Z,52.63
2023-05-19T11:49:52.274Z,51.73
2023-05-19T11:52:22.986Z,51.93
2023-05-19T11:54:50.662Z,51.31
2023-05-19T11:58:35.700Z,50.02
2023-05-19T12:01:04.506Z,51.31
2023-05-19T12:03:32.874Z,50.33
2023-05-19T12:06:00.240Z,50.67
2023-05-19T12:08:27.260Z,50.73
2023-05-19T12:10:54.321Z,49.84
2023-05-19T12:13:22.751Z,50.28
2023-05-19T12:15:51.076Z,51.26
2023-05-19T12:18:19.318Z,50.24
2023-05-19T12:20:47.867Z,50.83
2023-05-19T12:23:14.872Z,51.51
2023-05-19T12:26:34.993Z,50.42
2023-05-19T12:29:04.410Z,50.35
2023-05-19T12:31:31.405Z,51.28
2023-05-19T12:33:58.631Z,51.52
2023-05-19T12:36:27.238Z,51.01
2023-05-19T12:38:56.414Z,51.48
2023-05-19T12:41:50.513Z,50.83
2023-05-19T12:44:17.742Z,50.39
2023-05-19T12:46:44.776Z,50.53
2023-05-19T12:49:12.050Z,50.77
2023-05-19T12:51:40.571Z,49.54
2023-05-19T12:54:07.749Z,49.72
2023-05-19T12:56:34.998Z,50.67
2023-05-19T12:59:01.941Z,50.52
2023-05-19T13:03:56.935Z,51.36
2023-05-19T13:06:23.920Z,50.35
2023-05-19T13:08:52.171Z,51.11
2023-05-19T13:11:19.402Z,51.15
2023-05-19T13:13:46.255Z,50.95
2023-05-19T13:16:35.648Z,51.12
2023-05-19T13:19:03.276Z,51.80
2023-05-19T13:21:30.233Z,50.64
2023-05-19T13:23:58.719Z,50.44
2023-05-19T13:26:26.777Z,51.19
2023-05-19T13:28:53.716Z,51.30
2023-05-19T13:31:49.405Z,51.96
2023-05-19T13:34:16.428Z,51.57
2023-05-19T13:36:43.409Z,51.70
2023-05-19T13:39:37.736Z,51.88
2023-05-19T13:42:05.316Z,51.54
2023-05-19T13:44:32.798Z,51.19
2023-05-19T13:46:59.800Z,51.19
2023-05-19T13:49:27.269Z,52.07
2023-05-19T13:51:57.504Z,52.19
2023-05-19T13:54:24.513Z,51.40
2023-05-19T13:56:53.579Z,51.40
2023-05-19T13:59:21.280Z,51.71
2023-05-19T14:01:48.280Z,52.17
2023-05-19T14:04:18.562Z,51.93
2023-05-19T14:06:46.539Z,51.50
2023-05-19T14:09:13.495Z,51.92
2023-05-19T14:11:40.421Z,51.72
2023-05-19T14:14:12.625Z,51.35
2023-05-19T14:16:45.362Z,51.11
2023-05-19T14:19:13.352Z,51.31
2023-05-19T14:21:40.549Z,51.36
2023-05-19T14:24:07.620Z,50.92
2023-05-19T14:26:35.045Z,50.15
2023-05-19T14:29:04.698Z,51.28
2023-05-19T14:31:34.272Z,50.69
2023-05-19T14:34:02.833Z,50.23
2023-05-19T14:36:30.404Z,50.95
2023-05-19T14:38:57.357Z,51.46
2023-05-19T14:41:24.474Z,50.73
2023-05-19T14:43:51.608Z,50.52
2023-05-19T14:46:18.584Z,50.41
2023-05-19T14:48:46.761Z,49.97
2023-05-19T14:51:14.346Z,50.32
2023-05-19T14:53:41.259Z,50.09
2023-05-19T14:56:33.760Z,50.79
2023-05-19T14:59:00.628Z,50.90
2023-05-19T15:01:27.529Z,50.46
2023-05-19T15:04:04.859Z,50.46
2023-05-19T15:06:35.237Z,49.98
2023-05-19T15:09:27.085Z,49.66
2023-05-19T15:11:54.335Z,49.47
2023-05-19T15:14:22.402Z,49.20
2023-05-19T15:16:49.310Z,48.61
2023-05-19T15:19:17.955Z,48.64
2023-05-19T15:21:44.831Z,48.70
2023-05-19T15:24:11.867Z,48.23
2023-05-19T15:26:38.965Z,48.28
2023-05-19T15:29:56.959Z,48.42
2023-05-19T15:32:24.725Z,48.66
2023-05-19T15:34:53.444Z,48.48
2023-05-19T15:37:20.540Z,47.48
2023-05-19T15:39:47.439Z,47.78
2023-05-19T15:42:24.648Z,48.54
2023-05-19T15:44:52.704Z,48.11
2023-05-19T15:47:19.668Z,48.18
2023-05-19T15:49:46.834Z,47.70
2023-05-19T15:52:15.109Z,48.44
2023-05-19T15:54:42.005Z,48.14
2023-05-19T15:57:09.396Z,48.05
2023-05-19T15:59:36.336Z,48.99
2023-05-19T16:02:03.709Z,48.85
2023-05-19T16:04:30.925Z,48.08
2023-05-19T16:06:57.872Z,48.30
2023-05-19T16:09:26.369Z,48.61
2023-05-19T16:11:53.809Z,47.70
2023-05-19T16:14:46.548Z,47.82
2023-05-19T16:17:13.618Z,47.15
2023-05-19T16:19:41.104Z,47.75
2023-05-19T16:22:08.141Z,47.80
2023-05-19T16:24:37.501Z,47.94
2023-05-19T16:27:05.444Z,48.53
2023-05-19T16:29:32.359Z,49.17
2023-05-19T16:31:59.352Z,49.14
2023-05-19T16:34:27.489Z,49.51
2023-05-19T16:36:56.160Z,48.92
2023-05-19T16:39:24.839Z,49.03
2023-05-19T16:41:53.228Z,49.04
2023-05-19T16:44:20.885Z,48.51
2023-05-19T16:46:47.922Z,48.09
2023-05-19T16:49:14.879Z,48.88
2023-05-19T16:51:41.963Z,48.34
2023-05-19T16:54:09.084Z,47.46
2023-05-19T16:56:36.028Z,47.37
2023-05-19T16:59:04.348Z,47.61
2023-05-19T17:01:31.694Z,47.39
2023-05-19T17:03:58.770Z,48.04
2023-05-19T17:06:26.572Z,47.61
2023-05-19T17:08:53.583Z,48.00
2023-05-19T17:11:20.735Z,47.71
2023-05-19T17:13:48.051Z,47.45
2023-05-19T17:16:16.887Z,47.39
2023-05-19T17:18:45.044Z,47.60
2023-05-19T17:21:12.004Z,47.42
2023-05-19T17:23:38.970Z,47.63
2023-05-19T17:26:06.157Z,47.55
2023-05-19T17:28:33.434Z,47.86
2023-05-19T17:31:00.601Z,48.08
2023-05-19T17:33:29.363Z,48.00
2023-05-19T17:35:56.458Z,48.20
2023-05-19T17:38:23.545Z,48.33
2023-05-19T17:40:50.499Z,48.64
2023-05-19T17:43:17.889Z,48.69
2023-05-19T17:45:44.838Z,48.56
2023-05-19T17:48:11.932Z,49.03
2023-05-19T17:50:40.352Z,49.06
2023-05-19T17:53:08.367Z,49.62
2023-05-19T17:55:36.577Z,49.82
2023-05-19T17:58:04.189Z,50.13
2023-05-19T18:00:31.869Z,50.87
2023-05-19T18:02:59.788Z,51.29
2023-05-19T18:05:28.930Z,51.38
2023-05-19T18:08:00.057Z,51.77
2023-05-19T18:10:27.947Z,52.37
2023-05-19T18:12:54.986Z,52.60
2023-05-19T18:15:22.266Z,52.55
2023-05-19T18:17:49.517Z,53.38
2023-05-19T18:20:16.917Z,53.60
2023-05-19T18:22:44.056Z,54.46
2023-05-19T18:25:13.195Z,55.11
2023-05-19T18:27:40.127Z,54.72
2023-05-19T18:30:08.449Z,55.66
2023-05-19T18:32:36.111Z,56.01
2023-05-19T18:35:04.534Z,56.26
2023-05-19T18:37:31.568Z,56.74
2023-05-19T18:39:59.942Z,56.71
2023-05-19T18:42:29.488Z,56.77
2023-05-19T18:44:57.126Z,57.64
2023-05-19T18:47:24.118Z,57.80
2023-05-19T18:49:51.291Z,58.59
2023-05-19T18:52:20.809Z,59.14
2023-05-19T18:54:47.941Z,58.84
2023-05-19T18:57:15.278Z,59.03
2023-05-19T18:59:43.700Z,58.85
2023-05-19T19:02:10.824Z,58.97
2023-05-19T19:04:38.043Z,64.07
2023-05-19T19:07:05.830Z,64.69
2023-05-19T19:09:35.271Z,64.26
2023-05-19T19:12:02.932Z,64.71
2023-05-19T19:14:29.867Z,64.73
2023-05-19T19:16:58.360Z,66.68
2023-05-19T19:19:28.533Z,68.14
2023-05-19T19:21:55.708Z,69.16
2023-05-19T19:24:22.681Z,69.30
2023-05-19T19:26:50.321Z,69.98
2023-05-19T19:29:17.541Z,70.43
2023-05-19T19:31:44.568Z,70.37
2023-05-19T19:34:16.244Z,69.58
2023-05-19T19:36:45.816Z,70.13
2023-05-19T19:39:14.652Z,70.89
2023-05-19T19:41:41.859Z,71.20
2023-05-19T19:44:09.018Z,71.09
2023-05-19T19:46:39.468Z,71.56
2023-05-19T19:49:07.713Z,71.10
2023-05-19T19:51:39.165Z,72.04
2023-05-19T19:54:06.310Z,73.35
2023-05-19T19:56:33.343Z,73.23
2023-05-19T19:59:00.696Z,74.01
2023-05-19T20:01:28.138Z,74.73
2023-05-19T20:03:56.340Z,74.88
2023-05-19T20:06:23.670Z,74.42
2023-05-19T20:08:52.027Z,74.15
2023-05-19T20:11:41.785Z,74.48
2023-05-19T20:14:59.426Z,74.41
2023-05-19T20:17:26.992Z,74.94
2023-05-19T20:19:55.188Z,75.30
2023-05-19T20:22:22.288Z,75.27
2023-05-19T20:24:51.309Z,75.36
2023-05-19T20:27:18.910Z,75.84
2023-05-19T20:29:45.778Z,75.65
2023-05-19T20:32:13.535Z,75.71
2023-05-19T20:34:40.472Z,75.81
2023-05-19T20:37:07.548Z,75.24
2023-05-19T20:39:34.762Z,74.47
2023-05-19T20:42:03.104Z,73.78
2023-05-19T20:44:30.187Z,72.54
2023-05-19T20:46:57.349Z,72.60
2023-05-19T20:49:28.616Z,71.96
2023-05-19T20:51:56.781Z,71.99
2023-05-19T20:54:23.964Z,71.90
2023-05-19T20:56:53.132Z,71.78
2023-05-19T20:59:21.482Z,71.87
2023-05-19T21:01:48.948Z,73.26
2023-05-19T21:04:16.017Z,73.34
2023-05-19T21:06:42.937Z,73.20
2023-05-19T21:09:10.181Z,73.86
2023-05-19T21:11:38.209Z,73.06
2023-05-19T21:14:07.567Z,72.15
2023-05-19T21:16:36.044Z,71.01
2023-05-19T21:19:02.951Z,70.96
2023-05-19T21:21:29.886Z,70.82
2023-05-19T21:23:56.833Z,71.57
2023-05-19T21:26:23.965Z,72.40
2023-05-19T21:28:51.131Z,72.14
2023-05-19T21:31:18.194Z,72.50
2023-05-19T21:33:46.624Z,72.51
2023-05-19T21:36:13.488Z,73.13
2023-05-19T21:38:40.624Z,72.57
2023-05-19T21:41:07.557Z,71.73
2023-05-19T21:43:34.752Z,71.20
2023-05-19T21:46:01.694Z,70.61
2023-05-19T21:48:28.970Z,70.44
2023-05-19T21:50:57.288Z,70.45
2023-05-19T21:53:24.628Z,71.09
2023-05-19T21:55:51.535Z,71.09
2023-05-19T21:58:18.483Z,70.83
2023-05-19T22:00:49.088Z,71.21
2023-05-19T22:03:16.141Z,71.31
2023-05-19T22:05:48.400Z,70.74
2023-05-19T22:08:18.939Z,70.96
2023-05-19T22:10:49.906Z,71.13
2023-05-19T22:13:17.221Z,70.78
2023-05-19T22:15:44.377Z,70.79
2023-05-19T22:18:11.388Z,69.58
2023-05-19T22:20:38.368Z,69.57
2023-05-19T22:23:05.611Z,69.81
2023-05-19T22:25:33.978Z,69.35
2023-05-19T22:28:04.413Z,69.37
2023-05-19T22:30:31.884Z,69.43
2023-05-19T22:32:58.974Z,69.75
2023-05-19T22:35:26.224Z,69.64
2023-05-19T22:37:53.157Z,69.89
2023-05-19T22:40:20.002Z,70.27
2023-05-19T22:42:48.246Z,70.80
2023-05-19T22:45:42.042Z,70.45
2023-05-19T22:48:09.475Z,70.11
2023-05-19T22:50:36.550Z,69.75
2023-05-19T22:53:03.528Z,69.56
2023-05-19T22:55:30.429Z,69.85
2023-05-19T22:57:59.120Z,69.69
2023-05-19T23:00:26.105Z,69.15
2023-05-19T23:02:56.018Z,69.17
2023-05-19T23:05:23.325Z,68.63
2023-05-19T23:07:50.561Z,69.03
2023-05-19T23:10:42.943Z,68.84
2023-05-19T23:13:11.190Z,72.17
2023-05-19T23:15:38.375Z,73.35
2023-05-19T23:18:34.195Z,72.50
2023-05-19T23:21:01.098Z,72.99
2023-05-19T23:23:29.218Z,74.27
2023-05-19T23:26:27.892Z,74.00
2023-05-19T23:28:57.084Z,74.20
2023-05-19T23:31:24.175Z,75.09
2023-05-19T23:33:51.215Z,75.40
2023-05-19T23:36:18.322Z,76.54
2023-05-19T23:38:45.305Z,76.24
2023-05-19T23:41:12.244Z,76.78
2023-05-19T23:43:39.459Z,77.64
2023-05-19T23:46:08.206Z,77.65
2023-05-19T23:48:35.152Z,78.05
2023-05-19T23:51:02.199Z,78.42
2023-05-19T23:53:29.646Z,78.24
2023-05-19T23:55:58.666Z,78.35
2023-05-19T23:58:25.846Z,77.90
